Time;durP1;ratioP1;P1;durP2;ratioP2;P2;SDS_P1;SDS_P2;PMS_P1;PMS_P2;Temp;Humidity;BMP_temperature;BMP_pressure;BME280_temperature;BME280_humidity;BME280_pressure;Samples;Min_cycle;Max_cycle;Signal;HPM_P1;HPM_P2
2022/08/05 00:02:06;;;;;;;11.40;10.10;;;;;;;22.47;60.83;100336.65;116876;1189;21924;-60
2022/08/05 00:04:38;;;;;;;12.50;10.80;;;;;;;22.49;60.90;100335.27;117041;1188;22098;-60
2022/08/05 00:07:06;;;;;;;13.30;10.80;;;;;;;22.49;60.94;100334.59;117097;1188;22616;-60
2022/08/05 00:09:53;;;;;;;12.00;10.80;;;;;;;22.46;60.92;100330.63;116947;1191;21855;-67
2022/08/05 00:12:20;;;;;;;12.80;11.50;;;;;;;22.45;60.88;100328.23;116951;1188;23376;-59
2022/08/05 00:14:48;;;;;;;11.60;10.40;;;;;;;22.44;60.94;100327.02;116993;1188;23554;-67
2022/08/05 00:17:17;;;;;;;11.90;10.40;;;;;;;22.44;61.03;100328.10;117014;1186;22320;-67
2022/08/05 00:19:45;;;;;;;12.30;11.10;;;;;;;22.43;61.12;100329.56;117109;1187;23631;-67
2022/08/05 00:22:29;;;;;;;11.90;10.70;;;;;;;22.42;61.35;100329.45;116965;1188;21898;-67
2022/08/05 00:24:57;;;;;;;11.80;10.60;;;;;;;22.38;61.28;100329.16;116976;1186;22921;-60
2022/08/05 00:27:24;;;;;;;11.90;10.70;;;;;;;22.37;61.29;100329.39;116948;1188;23570;-66
2022/08/05 00:30:01;;;;;;;13.10;10.60;;;;;;;22.37;61.34;100328.85;117000;1188;21890;-67
2022/08/05 00:32:29;;;;;;;13.00;10.30;;;;;;;22.37;61.48;100322.38;116968;1186;21873;-67
2022/08/05 00:34:56;;;;;;;12.00;10.80;;;;;;;22.38;61.35;100321.60;116990;1188;24232;-61
2022/08/05 00:37:33;;;;;;;13.80;11.80;;;;;;;22.39;61.33;100320.84;116994;1188;21867;-66
2022/08/05 00:40:20;;;;;;;11.60;10.40;;;;;;;22.39;61.45;100317.09;116951;1188;23047;-60
2022/08/05 00:42:56;;;;;;;12.10;11.00;;;;;;;22.38;61.44;100313.23;116956;1187;21896;-67
2022/08/05 00:45:23;;;;;;;12.00;10.80;;;;;;;22.35;61.56;100310.02;116989;1188;21888;-67
2022/08/05 00:48:07;;;;;;;12.00;10.70;;;;;;;22.34;61.43;100307.21;116953;1188;23579;-66
2022/08/05 00:50:36;;;;;;;11.80;10.60;;;;;;;22.35;61.44;100309.66;116959;1188;21982;-67
2022/08/05 00:53:04;;;;;;;13.00;11.70;;;;;;;22.35;61.44;100306.79;116965;1188;21861;-60
2022/08/05 00:55:51;;;;;;;12.00;10.70;;;;;;;22.34;61.48;100304.34;116975;1188;22375;-66
2022/08/05 00:58:18;;;;;;;12.50;11.30;;;;;;;22.31;61.76;100301.39;116965;1185;23451;-67
2022/08/05 01:00:45;;;;;;;12.20;11.10;;;;;;;22.28;61.94;100301.34;116978;1188;23589;-60
2022/08/05 01:03:13;;;;;;;11.10;10.00;;;;;;;22.27;62.04;100300.17;117065;1188;23000;-67
2022/08/05 01:05:52;;;;;;;12.60;11.40;;;;;;;22.24;62.01;100304.96;116877;1186;22097;-67
2022/08/05 01:08:21;;;;;;;12.20;11.00;;;;;;;22.22;62.12;100307.59;116924;1189;21856;-66
2022/08/05 01:11:19;;;;;;;12.30;11.10;;;;;;;22.22;62.26;100311.20;116941;1185;21898;-66
2022/08/05 01:14:11;;;;;;;13.90;11.10;;;;;;;22.24;62.28;100310.91;117029;1186;21915;-59
2022/08/05 01:16:59;;;;;;;13.40;11.00;;;;;;;22.23;62.17;100310.59;117063;1187;22928;-60
2022/08/05 01:19:52;;;;;;;21.60;12.30;;;;;;;22.23;62.24;100311.11;116800;1190;22282;-60
2022/08/05 01:22:31;;;;;;;13.40;11.90;;;;;;;22.24;62.45;100309.80;117087;1188;23014;-60
2022/08/05 01:25:30;;;;;;;13.00;11.70;;;;;;;22.22;62.65;100312.09;117025;1188;21887;-60
2022/08/05 01:28:25;;;;;;;12.70;11.50;;;;;;;22.21;62.65;100312.34;116887;1185;22173;-66
2022/08/05 01:31:07;;;;;;;15.00;11.50;;;;;;;22.21;62.73;100310.52;117002;1188;23579;-60
2022/08/05 01:33:43;;;;;;;13.00;11.70;;;;;;;22.22;62.47;100307.25;116845;1187;23454;-66
2022/08/05 01:36:19;;;;;;;13.20;11.90;;;;;;;22.24;62.47;100306.09;116971;1187;21894;-66
2022/08/05 01:38:54;;;;;;;12.80;11.50;;;;;;;22.25;62.56;100306.55;116939;1188;22999;-60
2022/08/05 01:41:22;;;;;;;13.70;12.40;;;;;;;22.26;62.51;100304.33;117158;1188;21856;-66
2022/08/05 01:43:51;;;;;;;13.30;12.10;;;;;;;22.26;62.57;100304.30;116810;1189;22932;-59
2022/08/05 01:46:18;;;;;;;12.50;11.30;;;;;;;22.27;62.42;100303.52;116824;1189;23618;-66
2022/08/05 01:49:06;;;;;;;13.00;11.70;;;;;;;22.26;62.68;100305.40;116991;1187;21855;-66
2022/08/05 01:51:54;;;;;;;13.70;12.30;;;;;;;22.22;62.57;100307.27;116890;1191;22929;-60
2022/08/05 01:54:21;;;;;;;13.90;12.10;;;;;;;22.19;62.52;100307.63;116799;1191;23618;-61
2022/08/05 01:56:52;;;;;;;13.00;11.80;;;;;;;22.18;62.63;100308.59;116978;1187;23046;-59
2022/08/05 01:59:39;;;;;;;14.10;11.90;;;;;;;22.15;62.59;100308.04;117015;1187;21877;-66
2022/08/05 02:02:13;;;;;;;13.50;12.10;;;;;;;22.13;62.68;100307.59;116949;1189;23621;-66
2022/08/05 02:04:42;;;;;;;14.10;12.70;;;;;;;22.13;62.73;100308.70;116952;1189;21855;-66
2022/08/05 02:07:11;;;;;;;14.20;12.80;;;;;;;22.13;62.68;100308.68;116835;1187;22993;-66
2022/08/05 02:09:49;;;;;;;13.00;11.80;;;;;;;22.14;62.76;100307.56;116764;1188;21855;-63
2022/08/05 02:12:37;;;;;;;14.40;12.90;;;;;;;22.12;62.69;100305.34;117024;1188;21858;-66
2022/08/05 02:15:13;;;;;;;14.20;12.70;;;;;;;22.10;62.86;100305.80;117060;1188;21862;-66
2022/08/05 02:17:50;;;;;;;13.20;11.80;;;;;;;22.10;62.98;100312.64;116826;1189;21976;-65
2022/08/05 02:20:49;;;;;;;14.40;12.80;;;;;;;22.10;62.97;100313.87;117039;1186;22702;-59
2022/08/05 02:23:17;;;;;;;15.20;12.70;;;;;;;22.09;63.15;100313.20;117045;1185;21855;-66
2022/08/05 02:25:45;;;;;;;14.90;13.40;;;;;;;22.07;63.09;100314.09;116809;1190;21891;-66
2022/08/05 02:28:17;;;;;;;14.80;13.30;;;;;;;22.04;63.22;100316.03;116959;1190;22909;-66
2022/08/05 02:31:11;;;;;;;15.50;13.40;;;;;;;22.04;63.12;100317.65;117017;1188;23345;-66
2022/08/05 02:33:47;;;;;;;14.20;12.90;;;;;;;22.04;63.11;100317.47;116991;1187;23053;-66
2022/08/05 02:36:15;;;;;;;16.60;12.80;;;;;;;22.03;63.09;100317.36;117006;1186;22926;-66
2022/08/05 02:38:47;;;;;;;14.70;13.30;;;;;;;22.03;63.08;100318.41;117032;1186;23573;-59
2022/08/05 02:41:20;;;;;;;14.40;13.00;;;;;;;22.04;62.94;100315.89;117025;1188;21899;-66
2022/08/05 02:43:48;;;;;;;14.10;12.80;;;;;;;22.04;62.97;100319.98;116995;1188;22980;-66
2022/08/05 02:46:35;;;;;;;15.00;13.50;;;;;;;22.04;63.08;100320.67;118381;1185;23650;-59
2022/08/05 02:49:22;;;;;;;14.30;12.50;;;;;;;22.04;63.18;100324.27;116762;1188;22683;-59
2022/08/05 02:51:52;;;;;;;15.30;13.80;;;;;;;22.03;63.16;100325.73;117034;1188;21858;-66
2022/08/05 02:54:30;;;;;;;14.40;13.00;;;;;;;22.03;63.09;100327.16;116969;1185;23499;-67
2022/08/05 02:57:06;;;;;;;15.50;13.60;;;;;;;22.04;63.19;100332.50;116955;1188;21866;-60
2022/08/05 02:59:53;;;;;;;;;;;;;;;22.04;63.17;100331.03;117055;1186;21884;-60
2022/08/05 03:02:23;;;;;;;13.70;12.40;;;;;;;22.04;63.17;100330.51;117075;1187;23632;-67
2022/08/05 03:04:53;;;;;;;14.90;13.50;;;;;;;22.04;63.10;100328.04;116924;1187;22912;-59
2022/08/05 03:07:20;;;;;;;14.60;13.30;;;;;;;22.03;63.11;100324.89;117009;1183;22944;-60
2022/08/05 03:10:08;;;;;;;14.10;12.70;;;;;;;21.98;63.37;100323.86;116983;1188;22625;-67
2022/08/05 03:12:37;;;;;;;16.10;14.00;;;;;;;21.98;63.42;100329.81;117029;1187;22161;-67
2022/08/05 03:15:06;;;;;;;14.20;12.80;;;;;;;21.98;63.53;100329.27;117081;1186;24166;-60
2022/08/05 03:17:35;;;;;;;15.70;14.20;;;;;;;22.01;63.47;100329.08;116982;1185;23701;-67
2022/08/05 03:20:08;;;;;;;15.30;13.70;;;;;;;22.06;63.54;100332.72;117041;1187;23645;-67
2022/08/05 03:22:36;;;;;;;16.10;14.50;;;;;;;22.08;63.53;100334.34;117100;1185;21852;-60
2022/08/05 03:25:10;;;;;;;15.80;14.20;;;;;;;22.09;63.53;100339.34;116999;1187;22998;-60
2022/08/05 03:27:56;;;;;;;18.20;16.30;;;;;;;22.07;63.68;100338.57;116923;1187;23036;-66
2022/08/05 03:30:27;;;;;;;21.30;19.10;;;;;;;22.09;63.67;100336.68;116980;1188;23557;-66
2022/08/05 03:33:04;;;;;;;31.70;25.90;;;;;;;22.10;63.75;100334.77;117034;1185;22987;-67
2022/08/05 03:35:33;;;;;;;31.90;27.00;;;;;;;22.14;63.67;100336.32;117023;1188;21858;-67
2022/08/05 03:38:09;;;;;;;21.90;19.60;;;;;;;22.19;63.70;100336.38;117003;1188;23039;-60
2022/08/05 03:40:44;;;;;;;18.90;16.90;;;;;;;22.24;63.74;100339.69;116975;1184;22925;-67
2022/08/05 03:43:14;;;;;;;16.80;15.10;;;;;;;22.29;63.65;100339.20;116905;1189;21858;-59
2022/08/05 03:46:02;;;;;;;17.20;15.60;;;;;;;22.34;63.67;100338.66;117044;1188;21853;-67
2022/08/05 03:48:29;;;;;;;16.70;15.00;;;;;;;22.36;63.77;100336.77;117083;1184;23554;-67
2022/08/05 03:51:11;;;;;;;18.10;16.40;;;;;;;22.37;63.73;100337.42;117069;1188;23478;-67
2022/08/05 03:54:03;;;;;;;16.20;14.60;;;;;;;22.41;63.79;100335.90;116997;1184;22648;-60
2022/08/05 03:56:50;;;;;;;17.40;15.70;;;;;;;22.46;63.73;100336.70;117061;1191;23042;-60
2022/08/05 03:59:23;;;;;;;16.30;14.80;;;;;;;22.51;63.78;100339.98;116865;1188;22910;-68
2022/08/05 04:01:50;;;;;;;16.90;15.10;;;;;;;22.57;63.91;100338.01;116978;1187;23449;-67
2022/08/05 04:04:19;;;;;;;17.10;15.50;;;;;;;22.66;63.88;100338.89;116918;1187;22843;-59
2022/08/05 04:06:47;;;;;;;16.20;14.60;;;;;;;22.73;63.96;100343.45;117013;1188;21864;-67
2022/08/05 04:09:17;;;;;;;17.30;15.70;;;;;;;22.79;63.96;100340.89;117012;1188;22929;-60
2022/08/05 04:11:54;;;;;;;17.40;15.60;;;;;;;22.85;63.86;100341.73;116967;1187;21858;-60
2022/08/05 04:14:24;;;;;;;18.10;16.30;;;;;;;22.91;63.93;100343.52;116949;1188;21856;-67
2022/08/05 04:16:58;;;;;;;17.10;15.50;;;;;;;22.98;63.92;100341.99;117016;1189;23531;-66
2022/08/05 04:19:27;;;;;;;18.40;16.60;;;;;;;23.05;64.00;100343.67;116994;1188;24153;-67
2022/08/05 04:21:54;;;;;;;17.00;15.40;;;;;;;23.12;63.88;100342.34;116860;1187;23644;-67
2022/08/05 04:24:42;;;;;;;18.20;16.00;;;;;;;23.19;63.93;100341.02;116878;1189;22164;-67
2022/08/05 04:27:12;;;;;;;17.10;15.60;;;;;;;23.26;63.95;100345.58;116914;1188;21855;-67
2022/08/05 04:29:39;;;;;;;17.80;16.00;;;;;;;23.31;63.80;100344.34;116996;1187;21848;-67
2022/08/05 04:32:07;;;;;;;17.90;16.10;;;;;;;23.39;63.91;100346.72;116993;1188;21855;-66
2022/08/05 04:34:35;;;;;;;17.80;16.00;;;;;;;23.46;63.94;100342.29;117085;1188;22318;-60
2022/08/05 04:37:09;;;;;;;17.70;15.90;;;;;;;23.52;63.90;100343.32;117263;1188;21851;-66
2022/08/05 04:39:38;;;;;;;17.20;15.50;;;;;;;23.59;63.76;100340.70;116944;1185;23474;-67
2022/08/05 04:42:06;;;;;;;18.40;16.70;;;;;;;23.70;63.74;100338.77;119038;1187;21785;-67
2022/08/05 04:44:34;;;;;;;17.10;15.40;;;;;;;23.83;63.69;100342.17;119052;1187;21837;-68
2022/08/05 04:47:02;;;;;;;17.10;15.40;;;;;;;23.89;63.86;100340.64;118170;1188;22011;-67
2022/08/05 04:49:37;;;;;;;19.00;15.70;;;;;;;23.97;63.93;100341.55;117533;1183;22945;-66
2022/08/05 04:52:24;;;;;;;17.80;16.00;;;;;;;24.11;63.89;100343.81;116904;1188;22933;-67
2022/08/05 04:54:53;;;;;;;16.50;14.90;;;;;;;24.24;63.72;100347.43;116888;1189;21858;-67
2022/08/05 04:57:24;;;;;;;17.70;16.00;;;;;;;24.34;63.61;100344.91;116857;1183;22918;-65
2022/08/05 04:59:56;;;;;;;16.60;14.90;;;;;;;24.43;63.76;100346.98;116971;1186;21858;-67
2022/08/05 05:02:25;;;;;;;16.40;14.80;;;;;;;24.53;63.63;100347.92;116916;1185;23452;-66
2022/08/05 05:05:09;;;;;;;16.20;14.50;;;;;;;24.66;63.28;100348.05;116914;1187;21852;-65
2022/08/05 05:07:55;;;;;;;15.40;13.30;;;;;;;24.82;62.95;100348.19;116849;1188;21902;-66
2022/08/05 05:10:42;;;;;;;16.30;13.70;;;;;;;24.96;62.93;100347.03;116911;1188;21855;-65
2022/08/05 05:13:22;;;;;;;15.90;14.30;;;;;;;25.09;62.85;100344.83;116890;1188;22931;-60
2022/08/05 05:15:49;;;;;;;16.00;14.50;;;;;;;25.26;62.83;100343.04;116895;1188;23480;-60
2022/08/05 05:18:27;;;;;;;17.50;15.80;;;;;;;25.44;62.87;100342.77;116931;1188;21931;-59
2022/08/05 05:21:01;;;;;;;16.70;15.00;;;;;;;25.61;62.90;100342.73;117014;1187;21860;-59
2022/08/05 05:23:29;;;;;;;16.10;14.50;;;;;;;25.73;62.86;100340.23;117061;1190;23551;-59
2022/08/05 05:26:16;;;;;;;15.70;14.30;;;;;;;25.98;62.66;100338.84;117017;1188;21864;-67
2022/08/05 05:28:44;;;;;;;16.70;15.10;;;;;;;25.97;62.61;100337.83;116922;1188;22656;-67
2022/08/05 05:31:11;;;;;;;17.80;16.20;;;;;;;26.06;62.54;100334.45;116891;1188;22936;-67
2022/08/05 05:33:38;;;;;;;16.30;14.80;;;;;;;26.14;62.43;100332.77;117037;1185;21862;-67
2022/08/05 05:36:25;;;;;;;16.20;14.60;;;;;;;26.25;62.60;100333.88;116978;1187;22987;-67
2022/08/05 05:38:55;;;;;;;16.40;14.80;;;;;;;26.39;62.48;100334.56;117079;1188;22961;-67
2022/08/05 05:41:23;;;;;;;15.90;14.40;;;;;;;26.54;62.51;100333.02;116913;1188;21863;-67
2022/08/05 05:43:50;;;;;;;16.40;14.60;;;;;;;26.70;62.30;100327.11;116960;1188;22936;-67
2022/08/05 05:46:26;;;;;;;15.60;14.00;;;;;;;26.86;62.27;100326.69;116930;1188;22936;-67
2022/08/05 05:48:53;;;;;;;15.60;14.10;;;;;;;27.04;62.23;100326.55;117037;1188;21863;-67
2022/08/05 05:51:22;;;;;;;15.60;14.00;;;;;;;27.41;61.96;100326.20;116889;1188;22981;-59
2022/08/05 05:53:50;;;;;;;15.10;13.40;;;;;;;27.49;61.92;100327.16;116910;1187;21852;-59
2022/08/05 05:56:25;;;;;;;15.40;13.90;;;;;;;27.51;61.80;100326.58;117053;1188;22935;-60
2022/08/05 05:59:01;;;;;;;17.20;13.70;;;;;;;27.54;61.70;100326.39;116888;1188;21856;-60
2022/08/05 06:01:31;;;;;;;14.50;13.10;;;;;;;27.64;61.94;100328.41;117069;1188;21884;-67
2022/08/05 06:04:09;;;;;;;15.10;13.70;;;;;;;27.79;61.67;100323.85;117057;1187;21844;-59
2022/08/05 06:06:39;;;;;;;15.00;13.60;;;;;;;27.95;61.46;100325.94;117088;1186;24188;-60
2022/08/05 06:09:07;;;;;;;15.00;13.50;;;;;;;28.13;61.20;100326.20;116990;1187;23563;-60
2022/08/05 06:11:44;;;;;;;15.60;14.10;;;;;;;28.33;61.14;100326.61;116955;1188;22940;-67
2022/08/05 06:14:29;;;;;;;15.10;13.60;;;;;;;28.59;61.50;100328.35;116979;1188;21891;-65
2022/08/05 06:16:57;;;;;;;14.10;12.70;;;;;;;28.83;61.16;100328.17;116912;1187;22971;-65
2022/08/05 06:19:25;;;;;;;15.10;13.70;;;;;;;29.00;60.87;100332.85;116916;1189;21870;-65
2022/08/05 06:22:02;;;;;;;14.60;12.90;;;;;;;29.22;60.80;100331.39;117043;1187;22925;-59
2022/08/05 06:24:30;;;;;;;21.80;13.90;;;;;;;29.42;60.27;100329.03;117034;1188;21862;-59
2022/08/05 06:26:58;;;;;;;30.40;15.00;;;;;;;29.55;59.26;100326.03;117197;1185;22455;-66
2022/08/05 06:29:25;;;;;;;25.20;14.20;;;;;;;29.64;59.85;100329.16;117030;1188;22046;-66
2022/08/05 06:32:13;;;;;;;51.50;16.50;;;;;;;29.80;59.59;100332.55;116903;1183;21916;-60
2022/08/05 06:34:56;;;;;;;291.00;37.00;;;;;;;29.87;58.75;100334.02;117017;1188;21845;-67
2022/08/05 06:37:27;;;;;;;64.10;16.80;;;;;;;29.85;58.68;100331.65;117034;1186;22638;-67
2022/08/05 06:40:14;;;;;;;71.80;20.40;;;;;;;29.84;58.59;100330.65;116927;1187;23464;-66
2022/08/05 06:42:48;;;;;;;19.00;12.50;;;;;;;29.88;58.74;100333.20;117058;1186;22998;-60
2022/08/05 06:45:19;;;;;;;14.00;12.60;;;;;;;29.98;58.80;100332.52;116990;1183;23000;-67
2022/08/05 06:48:06;;;;;;;14.70;12.80;;;;;;;30.21;58.87;100325.02;116927;1185;22622;-60
2022/08/05 06:50:52;;;;;;;14.60;12.80;;;;;;;30.63;58.78;100319.21;116894;1186;22972;-67
2022/08/05 06:53:19;;;;;;;13.70;12.30;;;;;;;31.04;58.60;100312.99;116989;1187;22967;-67
2022/08/05 06:55:58;;;;;;;13.00;11.60;;;;;;;31.14;58.16;100313.14;116931;1183;22163;-66
2022/08/05 06:58:26;;;;;;;13.20;12.00;;;;;;;31.38;57.96;100314.39;117029;1186;22911;-60
2022/08/05 07:01:01;;;;;;;13.50;12.10;;;;;;;31.62;58.20;100317.91;116955;1188;21839;-66
2022/08/05 07:03:29;;;;;;;13.30;11.70;;;;;;;31.81;57.85;100315.64;117058;1188;23566;-59
2022/08/05 07:06:03;;;;;;;14.80;12.40;;;;;;;32.02;57.94;100312.40;116956;1189;21926;-60
2022/08/05 07:08:43;;;;;;;40.60;14.00;;;;;;;32.32;57.50;100311.26;117004;1188;23597;-66
2022/08/05 07:11:18;;;;;;;32.90;12.90;;;;;;;32.53;57.35;100311.55;116904;1188;21902;-66
2022/08/05 07:16:49;;;;;;;48.30;15.30;;;;;;;32.96;57.13;100315.01;117043;1188;21896;-61
2022/08/05 07:19:36;;;;;;;;;;;;;;;33.21;57.01;100316.17;116994;1188;21867;-61
2022/08/05 07:22:23;;;;;;;14.60;12.00;;;;;;;33.34;56.11;100313.66;117069;1187;22624;-67
2022/08/05 07:25:05;;;;;;;108.90;20.20;;;;;;;33.44;56.92;100314.73;117074;1188;22465;-67
2022/08/05 07:27:53;;;;;;;11.80;10.60;;;;;;;33.72;56.35;100313.67;116895;1186;21867;-66
2022/08/05 07:30:27;;;;;;;13.90;10.60;;;;;;;33.75;55.29;100311.14;116815;1188;21854;-59
2022/08/05 07:33:03;;;;;;;14.10;11.20;;;;;;;33.67;54.80;100311.46;116989;1188;22617;-59
2022/08/05 07:35:37;;;;;;;12.90;10.50;;;;;;;33.64;55.09;100312.89;117015;1188;21855;-67
2022/08/05 07:38:25;;;;;;;11.50;10.20;;;;;;;33.68;55.46;100313.17;116985;1186;22072;-63
2022/08/05 07:41:05;;;;;;;12.60;10.00;;;;;;;33.81;55.87;100313.56;117017;1188;21879;-67
2022/08/05 07:43:54;;;;;;;12.00;9.40;;;;;;;34.05;55.71;100312.13;116964;1188;23265;-60
2022/08/05 07:46:24;;;;;;;11.70;9.30;;;;;;;33.99;54.89;100315.76;116910;1188;21860;-59
2022/08/05 07:48:53;;;;;;;10.20;8.90;;;;;;;33.90;54.94;100316.52;116923;1188;21854;-59
2022/08/05 07:51:32;;;;;;;10.60;9.50;;;;;;;33.90;54.80;100311.48;117071;1188;22182;-66
2022/08/05 07:54:07;;;;;;;9.50;8.60;;;;;;;33.87;55.39;100308.84;116916;1188;21850;-59
2022/08/05 07:56:37;;;;;;;9.90;8.90;;;;;;;33.89;54.63;100308.15;116888;1188;22652;-67
2022/08/05 07:59:24;;;;;;;10.70;9.40;;;;;;;33.92;55.17;100309.21;116935;1188;21859;-59
2022/08/05 08:02:09;;;;;;;11.30;9.50;;;;;;;34.13;54.70;100311.81;117014;1188;21848;-59
2022/08/05 13:49:41;;;;;;;6.30;5.40;;;;;;;37.24;44.90;100209.60;117125;1179;23454;-63
2022/08/05 13:52:22;;;;;;;6.10;5.50;;;;;;;37.00;44.85;100211.13;117059;1188;23519;-63
2022/08/05 13:54:55;;;;;;;5.60;5.00;;;;;;;36.97;47.07;100209.70;116984;1191;21857;-68
2022/08/05 13:57:26;;;;;;;5.70;4.60;;;;;;;37.10;47.49;100207.80;116984;1186;22199;-68
2022/08/05 14:00:13;;;;;;;6.20;4.90;;;;;;;37.25;47.03;100204.25;117087;1185;21858;-66
2022/08/05 14:02:43;;;;;;;6.00;5.10;;;;;;;37.29;42.98;100200.73;116927;1189;21863;-63
2022/08/05 14:05:10;;;;;;;5.80;5.20;;;;;;;37.20;44.73;100199.82;117067;1187;22921;-63
2022/08/05 14:07:45;;;;;;;7.30;4.80;;;;;;;37.25;47.17;100207.67;117046;1188;21866;-63
2022/08/05 14:10:31;;;;;;;5.50;4.10;;;;;;;37.39;48.00;100208.19;117088;1189;21881;-67
2022/08/05 14:12:58;;;;;;;6.60;4.40;;;;;;;37.48;47.95;100206.13;117261;1186;21875;-63
2022/08/05 14:15:26;;;;;;;5.10;4.30;;;;;;;37.47;50.31;100205.10;117013;1187;23638;-68
2022/08/05 14:18:14;;;;;;;5.80;4.70;;;;;;;37.46;50.14;100204.94;117039;1189;22637;-64
2022/08/05 14:20:48;;;;;;;5.50;4.30;;;;;;;37.44;48.66;100203.86;117032;1186;22091;-64
2022/08/05 14:23:21;;;;;;;6.70;4.60;;;;;;;37.32;49.05;100207.97;117017;1185;22314;-67
2022/08/05 14:25:53;;;;;;;5.90;4.50;;;;;;;37.15;47.84;100203.20;117195;1188;22097;-67
2022/08/05 14:28:28;;;;;;;4.90;4.40;;;;;;;36.97;45.81;100199.83;116985;1186;24147;-62
2022/08/05 14:30:56;;;;;;;5.80;4.60;;;;;;;36.75;46.51;100201.66;117048;1187;22968;-62
2022/08/05 14:33:24;;;;;;;5.30;4.80;;;;;;;36.65;46.75;100202.41;117102;1186;23618;-63
2022/08/05 14:35:51;;;;;;;4.90;4.40;;;;;;;36.62;47.99;100200.45;117110;1189;21889;-68
2022/08/05 14:38:22;;;;;;;5.20;4.70;;;;;;;36.58;46.36;100197.63;116963;1189;21848;-65
2022/08/05 14:41:01;;;;;;;;;;;;;;;36.47;46.42;100195.63;116822;1189;21883;-63
2022/08/05 14:43:35;;;;;;;5.40;4.70;;;;;;;36.43;46.55;100199.15;117089;1189;21861;-62
2022/08/05 14:46:22;;;;;;;6.00;5.40;;;;;;;36.49;47.05;100200.03;117105;1188;23925;-68
2022/08/05 14:48:58;;;;;;;6.20;5.40;;;;;;;36.32;48.83;100202.07;117287;1186;21935;-63
2022/08/05 14:51:37;;;;;;;7.60;5.80;;;;;;;36.28;49.25;100200.79;116972;1188;21864;-67
2022/08/05 14:54:09;;;;;;;6.60;5.70;;;;;;;36.24;49.14;100197.63;116744;1186;23017;-68
2022/08/05 14:56:57;;;;;;;6.80;6.10;;;;;;;36.32;49.60;100199.70;116764;1188;21841;-69
2022/08/05 14:59:25;;;;;;;6.00;5.20;;;;;;;36.15;48.49;100199.64;117042;1185;22947;-66
2022/08/05 15:02:02;;;;;;;10.50;6.60;;;;;;;35.95;48.49;100204.59;116994;1186;23475;-69
2022/08/05 15:04:41;;;;;;;7.80;6.40;;;;;;;35.70;49.25;100204.71;116969;1186;23475;-67
2022/08/05 15:07:10;;;;;;;7.70;6.90;;;;;;;35.45;49.30;100208.44;117024;1186;21854;-67
2022/08/05 15:09:57;;;;;;;7.90;6.60;;;;;;;35.25;49.05;100208.31;117131;1185;22947;-62
2022/08/05 15:12:29;;;;;;;7.10;6.40;;;;;;;35.06;49.16;100208.92;117013;1189;21870;-67
2022/08/05 15:15:16;;;;;;;7.80;7.00;;;;;;;34.83;50.43;100210.18;117031;1188;21857;-63
2022/08/05 15:18:03;;;;;;;7.30;6.50;;;;;;;34.69;49.97;100212.56;117035;1188;21977;-67
2022/08/05 15:20:31;;;;;;;8.00;7.10;;;;;;;34.55;50.11;100212.33;117063;1188;21857;-67
2022/08/05 15:23:05;;;;;;;8.40;7.10;;;;;;;34.45;50.07;100208.96;116883;1189;21924;-68
2022/08/05 15:25:35;;;;;;;8.10;7.30;;;;;;;34.36;50.21;100208.35;116807;1188;22090;-64
2022/08/05 15:28:18;;;;;;;9.50;7.60;;;;;;;34.28;50.10;100209.48;116932;1188;21860;-67
2022/08/05 15:30:50;;;;;;;8.40;7.00;;;;;;;34.30;50.16;100206.38;116998;1188;22853;-63
2022/08/05 15:33:19;;;;;;;10.30;7.60;;;;;;;34.31;50.19;100209.45;119158;1186;22239;-67
2022/08/05 15:36:06;;;;;;;9.10;6.80;;;;;;;34.28;50.97;100208.52;118968;1188;22154;-67
2022/08/05 15:38:43;;;;;;;7.00;6.30;;;;;;;34.23;51.69;100210.31;117389;1183;23522;-67
2022/08/05 15:41:12;;;;;;;7.90;7.10;;;;;;;34.17;51.91;100215.92;119065;1188;21801;-67
2022/08/05 15:43:50;;;;;;;8.70;6.90;;;;;;;34.11;51.71;100213.02;116984;1189;21870;-66
2022/08/05 15:46:21;;;;;;;11.20;6.70;;;;;;;33.99;51.59;100214.23;117017;1185;23491;-62
2022/08/05 15:48:51;;;;;;;9.80;7.60;;;;;;;33.87;51.74;100216.79;117078;1190;21857;-62
2022/08/05 15:51:27;;;;;;;8.30;7.50;;;;;;;33.83;51.30;100219.29;117010;1189;22970;-63
2022/08/05 15:54:14;;;;;;;7.50;6.80;;;;;;;33.72;51.16;100223.38;116917;1186;23632;-62
2022/08/05 15:56:41;;;;;;;6.90;6.20;;;;;;;33.55;51.30;100222.06;116847;1188;23047;-66
2022/08/05 15:59:09;;;;;;;8.50;6.90;;;;;;;33.42;51.02;100227.63;117021;1188;23473;-67
2022/08/05 16:01:49;;;;;;;7.10;6.20;;;;;;;33.25;50.86;100228.64;116884;1189;22918;-67
2022/08/05 16:04:20;;;;;;;6.80;6.00;;;;;;;33.11;50.42;100228.65;117019;1189;23679;-66
2022/08/05 16:06:54;;;;;;;6.00;5.40;;;;;;;33.02;50.60;100225.14;117032;1186;21926;-62
2022/08/05 16:09:22;;;;;;;8.20;5.90;;;;;;;32.94;50.52;100223.34;117062;1188;21864;-62
2022/08/05 16:11:50;;;;;;;6.90;6.20;;;;;;;32.83;50.68;100219.80;116919;1189;22931;-62
2022/08/05 16:14:23;;;;;;;6.40;5.70;;;;;;;32.70;50.41;100219.15;117061;1186;21858;-67
2022/08/05 16:16:50;;;;;;;6.80;5.60;;;;;;;32.49;50.66;100216.11;116863;1189;24207;-62
2022/08/05 16:19:17;;;;;;;10.20;6.60;;;;;;;32.38;50.83;100216.23;117049;1185;21856;-62
2022/08/05 16:22:05;;;;;;;7.30;6.50;;;;;;;32.27;50.81;100212.11;117072;1186;23576;-62
2022/08/05 16:24:36;;;;;;;7.50;5.80;;;;;;;32.16;50.76;100212.52;117051;1189;21858;-66
2022/08/05 16:27:17;;;;;;;7.10;5.60;;;;;;;32.02;50.73;100216.02;117094;1188;21857;-62
2022/08/05 16:29:45;;;;;;;6.70;5.90;;;;;;;31.91;51.04;100215.75;117048;1188;23018;-66
2022/08/05 16:32:18;;;;;;;6.80;5.70;;;;;;;31.86;50.73;100214.41;117049;1188;21858;-65
2022/08/05 16:34:54;;;;;;;8.00;5.80;;;;;;;31.78;50.96;100216.59;117638;1188;23526;-61
2022/08/05 16:37:23;;;;;;;8.80;5.40;;;;;;;31.68;51.17;100213.20;117080;1188;21909;-61
2022/08/05 16:40:10;;;;;;;14.30;6.40;;;;;;;31.57;51.15;100211.95;117067;1186;22242;-62
2022/08/05 16:42:54;;;;;;;11.10;6.00;;;;;;;31.47;51.05;100214.25;116837;1185;21870;-62
2022/08/05 16:45:21;;;;;;;9.80;5.60;;;;;;;31.38;51.08;100220.22;117016;1186;21858;-66
2022/08/05 16:48:08;;;;;;;7.80;5.50;;;;;;;31.29;51.19;100220.96;117074;1177;23651;-62
2022/08/05 16:50:36;;;;;;;8.70;6.10;;;;;;;31.21;51.27;100219.51;117158;1188;23491;-66
2022/08/05 16:53:03;;;;;;;8.50;6.30;;;;;;;31.13;51.30;100221.36;117170;1186;23557;-63
2022/08/05 16:55:38;;;;;;;16.00;9.10;;;;;;;31.04;51.20;100229.53;117078;1188;21848;-61
2022/08/05 16:58:13;;;;;;;9.30;6.40;;;;;;;30.94;51.48;100227.64;116872;1188;21949;-65
2022/08/05 17:00:45;;;;;;;12.20;6.10;;;;;;;30.86;51.40;100229.85;117116;1189;21865;-62
2022/08/05 17:03:15;;;;;;;7.10;5.40;;;;;;;30.77;51.46;100234.38;117119;1185;22927;-66
2022/08/05 17:05:47;;;;;;;6.40;5.50;;;;;;;30.67;51.59;100237.84;117076;1189;22768;-63
2022/08/05 17:08:20;;;;;;;11.30;6.30;;;;;;;30.59;51.71;100242.13;117072;1188;21899;-67
2022/08/05 17:11:08;;;;;;;6.10;5.30;;;;;;;30.50;51.74;100250.21;117018;1188;21858;-62
2022/08/05 17:13:44;;;;;;;6.40;5.60;;;;;;;30.40;51.79;100249.93;117191;1186;23451;-61
2022/08/05 17:16:11;;;;;;;9.80;5.90;;;;;;;30.32;51.77;100250.89;117020;1187;22095;-66
2022/08/05 17:18:59;;;;;;;8.40;6.70;;;;;;;30.22;51.83;100255.31;117000;1188;22571;-62
2022/08/05 17:21:26;;;;;;;6.50;5.80;;;;;;;30.13;51.72;100254.70;116852;1186;22907;-62
2022/08/05 17:24:07;;;;;;;7.30;6.60;;;;;;;30.05;51.91;100260.59;116972;1186;22732;-62
2022/08/05 17:26:56;;;;;;;7.40;6.70;;;;;;;29.94;52.12;100258.83;116934;1188;22333;-62
2022/08/05 17:29:24;;;;;;;17.00;7.30;;;;;;;29.86;52.11;100260.36;117140;1186;21856;-62
2022/08/05 17:32:09;;;;;;;8.70;6.50;;;;;;;29.76;52.27;100264.54;116928;1189;21860;-62